sensor_id;sensor_type;location;lat;lon;timestamp;pressure;altitude;pressure_sealevel;temperature;humidity
1371;BME280;14306;49.942;11.570;2022-12-10T00:01:43;96393.97;;;1.17;84.83
1371;BME280;14306;49.942;11.570;2022-12-10T00:04:14;96406.00;;;1.05;85.43
1371;BME280;14306;49.942;11.570;2022-12-10T00:06:42;96406.50;;;1.12;86.21
1371;BME280;14306;49.942;11.570;2022-12-10T00:09:12;96411.84;;;1.12;85.35
1371;BME280;14306;49.942;11.570;2022-12-10T00:11:41;96409.16;;;1.17;85.43
1371;BME280;14306;49.942;11.570;2022-12-10T00:14:11;96412.91;;;1.11;85.19
1371;BME280;14306;49.942;11.570;2022-12-10T00:16:39;96381.50;;;0.78;85.90
1371;BME280;14306;49.942;11.570;2022-12-10T00:19:08;96407.03;;;1.09;87.09
1371;BME280;14306;49.942;11.570;2022-12-10T00:21:38;96396.13;;;1.05;86.24
1371;BME280;14306;49.942;11.570;2022-12-10T00:24:09;96404.88;;;1.36;84.53
1371;BME280;14306;49.942;11.570;2022-12-10T00:26:38;96400.34;;;1.26;85.51
1371;BME280;14306;49.942;11.570;2022-12-10T00:29:09;96401.97;;;1.22;85.10
1371;BME280;14306;49.942;11.570;2022-12-10T00:31:38;96405.66;;;1.41;85.09
1371;BME280;14306;49.942;11.570;2022-12-10T00:34:09;96404.84;;;1.46;85.21
1371;BME280;14306;49.942;11.570;2022-12-10T00:36:41;96400.31;;;1.46;84.76
1371;BME280;14306;49.942;11.570;2022-12-10T00:39:11;96396.06;;;1.40;85.24
1371;BME280;14306;49.942;11.570;2022-12-10T00:41:40;96371.13;;;0.96;85.56
1371;BME280;14306;49.942;11.570;2022-12-10T00:44:09;96392.59;;;1.35;84.74
1371;BME280;14306;49.942;11.570;2022-12-10T00:46:37;96399.56;;;1.26;85.62
1371;BME280;14306;49.942;11.570;2022-12-10T00:49:05;96395.56;;;1.28;85.29
1371;BME280;14306;49.942;11.570;2022-12-10T00:51:34;96391.25;;;1.37;84.47
1371;BME280;14306;49.942;11.570;2022-12-10T00:54:04;96401.16;;;1.37;85.22
1371;BME280;14306;49.942;11.570;2022-12-10T00:56:32;96401.09;;;1.47;84.89
1371;BME280;14306;49.942;11.570;2022-12-10T00:59:01;96405.66;;;1.46;84.08
1371;BME280;14306;49.942;11.570;2022-12-10T01:01:32;96400.84;;;1.43;85.08
1371;BME280;14306;49.942;11.570;2022-12-10T01:04:03;96396.13;;;1.15;85.55
1371;BME280;14306;49.942;11.570;2022-12-10T01:06:33;96403.78;;;1.42;85.39
1371;BME280;14306;49.942;11.570;2022-12-10T01:09:05;96382.53;;;1.22;84.79
1371;BME280;14306;49.942;11.570;2022-12-10T01:11:35;96406.22;;;1.28;84.75
1371;BME280;14306;49.942;11.570;2022-12-10T01:14:05;96372.69;;;0.97;84.45
1371;BME280;14306;49.942;11.570;2022-12-10T01:16:34;96395.59;;;1.03;85.27
1371;BME280;14306;49.942;11.570;2022-12-10T01:19:02;96409.19;;;1.12;84.98
1371;BME280;14306;49.942;11.570;2022-12-10T01:21:31;96415.31;;;1.27;85.50
1371;BME280;14306;49.942;11.570;2022-12-10T01:23:59;96410.53;;;1.04;85.61
1371;BME280;14306;49.942;11.570;2022-12-10T01:26:31;96376.97;;;0.83;85.48
1371;BME280;14306;49.942;11.570;2022-12-10T01:29:00;96405.16;;;1.24;85.31
1371;BME280;14306;49.942;11.570;2022-12-10T01:31:31;96426.75;;;1.23;84.76
1371;BME280;14306;49.942;11.570;2022-12-10T01:34:00;96395.88;;;0.92;86.35
1371;BME280;14306;49.942;11.570;2022-12-10T01:36:30;96434.25;;;1.21;85.23
1371;BME280;14306;49.942;11.570;2022-12-10T01:39:00;96434.53;;;1.04;86.45
1371;BME280;14306;49.942;11.570;2022-12-10T01:41:32;96426.50;;;1.19;85.81
1371;BME280;14306;49.942;11.570;2022-12-10T01:44:03;96396.41;;;0.89;85.57
1371;BME280;14306;49.942;11.570;2022-12-10T01:46:32;96419.84;;;0.97;85.73
1371;BME280;14306;49.942;11.570;2022-12-10T01:49:03;96421.97;;;1.20;84.92
1371;BME280;14306;49.942;11.570;2022-12-10T01:51:34;96422.25;;;1.23;84.79
1371;BME280;14306;49.942;11.570;2022-12-10T01:54:05;96425.69;;;1.24;84.84
1371;BME280;14306;49.942;11.570;2022-12-10T01:56:38;96426.53;;;1.04;85.44
1371;BME280;14306;49.942;11.570;2022-12-10T01:59:09;96422.78;;;0.90;85.46
1371;BME280;14306;49.942;11.570;2022-12-10T02:01:45;96434.75;;;1.28;85.07
1371;BME280;14306;49.942;11.570;2022-12-10T02:04:21;96431.03;;;1.24;84.82
1371;BME280;14306;49.942;11.570;2022-12-10T02:06:56;96434.25;;;1.06;84.43
1371;BME280;14306;49.942;11.570;2022-12-10T02:09:32;96411.06;;;0.91;85.49
1371;BME280;14306;49.942;11.570;2022-12-10T02:12:10;96428.34;;;1.34;85.30
1371;BME280;14306;49.942;11.570;2022-12-10T02:14:52;96419.31;;;1.15;85.08
1371;BME280;14306;49.942;11.570;2022-12-10T02:17:25;96411.06;;;1.11;84.95
1371;BME280;14306;49.942;11.570;2022-12-10T02:20:04;96431.75;;;1.49;84.55
1371;BME280;14306;49.942;11.570;2022-12-10T02:22:37;96429.66;;;1.46;84.84
1371;BME280;14306;49.942;11.570;2022-12-10T02:25:08;96417.84;;;1.67;83.91
1371;BME280;14306;49.942;11.570;2022-12-10T02:27:46;96421.94;;;1.45;83.80
1371;BME280;14306;49.942;11.570;2022-12-10T02:30:18;96395.28;;;1.40;84.00
1371;BME280;14306;49.942;11.570;2022-12-10T02:32:48;96423.00;;;1.34;84.81
1371;BME280;14306;49.942;11.570;2022-12-10T02:35:20;96422.69;;;1.55;84.01
1371;BME280;14306;49.942;11.570;2022-12-10T02:37:55;96435.28;;;1.35;84.01
1371;BME280;14306;49.942;11.570;2022-12-10T02:40:27;96429.97;;;1.30;85.65
1371;BME280;14306;49.942;11.570;2022-12-10T02:42:58;96433.91;;;1.57;84.77
1371;BME280;14306;49.942;11.570;2022-12-10T02:45:29;96439.44;;;1.76;84.33
1371;BME280;14306;49.942;11.570;2022-12-10T02:48:00;96438.63;;;1.80;84.49
1371;BME280;14306;49.942;11.570;2022-12-10T02:50:30;96444.50;;;1.77;84.08
1371;BME280;14306;49.942;11.570;2022-12-10T02:52:58;96444.53;;;1.72;83.86
1371;BME280;14306;49.942;11.570;2022-12-10T02:55:29;96440.53;;;1.65;83.89
1371;BME280;14306;49.942;11.570;2022-12-10T02:58:11;96445.56;;;1.71;84.26
1371;BME280;14306;49.942;11.570;2022-12-10T03:00:48;96441.13;;;1.52;84.74
1371;BME280;14306;49.942;11.570;2022-12-10T03:03:35;96440.22;;;1.81;83.14
1371;BME280;14306;49.942;11.570;2022-12-10T03:06:09;96436.22;;;1.79;82.50
1371;BME280;14306;49.942;11.570;2022-12-10T03:08:41;96439.72;;;1.64;82.65
1371;BME280;14306;49.942;11.570;2022-12-10T03:11:16;96433.84;;;1.72;82.97
1371;BME280;14306;49.942;11.570;2022-12-10T03:13:51;96450.16;;;1.61;83.06
1371;BME280;14306;49.942;11.570;2022-12-10T03:16:24;96441.50;;;1.89;82.54
1371;BME280;14306;49.942;11.570;2022-12-10T03:18:57;96439.94;;;1.78;82.79
1371;BME280;14306;49.942;11.570;2022-12-10T03:21:28;96429.38;;;1.48;83.76
1371;BME280;14306;49.942;11.570;2022-12-10T03:23:58;96440.28;;;1.56;83.79
1371;BME280;14306;49.942;11.570;2022-12-10T03:26:27;96441.31;;;1.80;83.47
1371;BME280;14306;49.942;11.570;2022-12-10T03:28:58;96449.88;;;1.72;83.03
1371;BME280;14306;49.942;11.570;2022-12-10T03:31:31;96434.84;;;1.86;82.71
1371;BME280;14306;49.942;11.570;2022-12-10T03:34:02;96431.97;;;1.73;82.69
1371;BME280;14306;49.942;11.570;2022-12-10T03:36:32;96437.88;;;1.65;82.98
1371;BME280;14306;49.942;11.570;2022-12-10T03:39:01;96444.53;;;1.72;83.24
1371;BME280;14306;49.942;11.570;2022-12-10T03:41:29;96440.81;;;1.58;82.74
1371;BME280;14306;49.942;11.570;2022-12-10T03:44:00;96434.41;;;1.69;82.92
1371;BME280;14306;49.942;11.570;2022-12-10T03:46:31;96433.34;;;1.65;82.60
1371;BME280;14306;49.942;11.570;2022-12-10T03:49:01;96442.34;;;1.79;82.61
1371;BME280;14306;49.942;11.570;2022-12-10T03:51:30;96420.78;;;1.71;82.35
1371;BME280;14306;49.942;11.570;2022-12-10T03:54:00;96418.59;;;1.78;82.41
1371;BME280;14306;49.942;11.570;2022-12-10T03:56:28;96424.53;;;1.65;82.51
1371;BME280;14306;49.942;11.570;2022-12-10T03:58:56;96417.88;;;1.62;82.38
1371;BME280;14306;49.942;11.570;2022-12-10T04:01:25;96426.38;;;1.64;83.05
1371;BME280;14306;49.942;11.570;2022-12-10T04:03:54;96424.50;;;1.70;82.80
1371;BME280;14306;49.942;11.570;2022-12-10T04:06:23;96423.97;;;1.73;82.88
1371;BME280;14306;49.942;11.570;2022-12-10T04:08:52;96423.72;;;1.64;82.20
1371;BME280;14306;49.942;11.570;2022-12-10T04:11:24;96428.34;;;1.44;83.04
1371;BME280;14306;49.942;11.570;2022-12-10T04:13:53;96424.00;;;1.58;82.81
1371;BME280;14306;49.942;11.570;2022-12-10T04:16:39;96415.47;;;1.61;82.97
1371;BME280;14306;49.942;11.570;2022-12-10T04:19:10;96419.50;;;1.53;82.74
1371;BME280;14306;49.942;11.570;2022-12-10T04:21:41;96419.72;;;1.72;83.49
1371;BME280;14306;49.942;11.570;2022-12-10T04:24:29;96425.53;;;1.84;82.36
1371;BME280;14306;49.942;11.570;2022-12-10T04:27:18;96421.66;;;1.41;84.78
1371;BME280;14306;49.942;11.570;2022-12-10T04:29:47;96422.94;;;1.59;83.08
1371;BME280;14306;49.942;11.570;2022-12-10T04:32:16;96421.84;;;1.65;83.79
1371;BME280;14306;49.942;11.570;2022-12-10T04:34:46;96423.69;;;1.74;83.76
1371;BME280;14306;49.942;11.570;2022-12-10T04:37:15;96417.09;;;1.57;82.99
1371;BME280;14306;49.942;11.570;2022-12-10T04:39:43;96420.50;;;1.67;84.51
1371;BME280;14306;49.942;11.570;2022-12-10T04:42:12;96418.78;;;2.01;82.66
1371;BME280;14306;49.942;11.570;2022-12-10T04:44:41;96413.75;;;1.95;81.79
1371;BME280;14306;49.942;11.570;2022-12-10T04:47:09;96410.53;;;1.93;82.66
1371;BME280;14306;49.942;11.570;2022-12-10T04:49:38;96417.56;;;1.74;83.45
1371;BME280;14306;49.942;11.570;2022-12-10T04:52:11;96410.06;;;1.86;83.55
1371;BME280;14306;49.942;11.570;2022-12-10T04:54:41;96412.88;;;2.09;82.88
1371;BME280;14306;49.942;11.570;2022-12-10T04:57:10;96421.59;;;2.20;81.89
1371;BME280;14306;49.942;11.570;2022-12-10T04:59:39;96415.63;;;1.89;82.94
1371;BME280;14306;49.942;11.570;2022-12-10T05:02:07;96399.72;;;1.64;83.66
1371;BME280;14306;49.942;11.570;2022-12-10T05:04:36;96423.22;;;2.21;83.32
1371;BME280;14306;49.942;11.570;2022-12-10T05:07:04;96424.28;;;2.25;82.73
1371;BME280;14306;49.942;11.570;2022-12-10T05:09:34;96419.31;;;2.03;82.20
1371;BME280;14306;49.942;11.570;2022-12-10T05:12:03;96406.81;;;1.94;83.47
1371;BME280;14306;49.942;11.570;2022-12-10T05:14:32;96410.31;;;1.84;83.26
1371;BME280;14306;49.942;11.570;2022-12-10T05:17:01;96430.47;;;2.10;82.84
1371;BME280;14306;49.942;11.570;2022-12-10T05:19:29;96436.38;;;2.07;82.47
1371;BME280;14306;49.942;11.570;2022-12-10T05:21:58;96433.34;;;2.24;82.39
1371;BME280;14306;49.942;11.570;2022-12-10T05:24:45;96424.34;;;2.10;82.69
1371;BME280;14306;49.942;11.570;2022-12-10T05:27:14;96417.13;;;2.10;82.01
1371;BME280;14306;49.942;11.570;2022-12-10T05:29:42;96432.09;;;2.11;82.07
1371;BME280;14306;49.942;11.570;2022-12-10T05:32:11;96430.50;;;2.05;82.57
1371;BME280;14306;49.942;11.570;2022-12-10T05:34:39;96438.97;;;2.22;82.57
1371;BME280;14306;49.942;11.570;2022-12-10T05:37:08;96425.50;;;1.94;83.22
1371;BME280;14306;49.942;11.570;2022-12-10T05:39:36;96437.09;;;2.28;82.06
1371;BME280;14306;49.942;11.570;2022-12-10T05:42:06;96447.19;;;2.36;81.66
1371;BME280;14306;49.942;11.570;2022-12-10T05:44:35;96443.44;;;2.37;81.42
1371;BME280;14306;49.942;11.570;2022-12-10T05:47:03;96435.47;;;2.32;81.58
1371;BME280;14306;49.942;11.570;2022-12-10T05:49:32;96433.66;;;2.17;82.09
1371;BME280;14306;49.942;11.570;2022-12-10T05:52:01;96445.44;;;2.06;82.66
1371;BME280;14306;49.942;11.570;2022-12-10T05:54:29;96440.34;;;2.15;81.95
1371;BME280;14306;49.942;11.570;2022-12-10T05:56:58;96445.88;;;2.28;81.63
1371;BME280;14306;49.942;11.570;2022-12-10T05:59:28;96445.38;;;2.26;81.84
1371;BME280;14306;49.942;11.570;2022-12-10T06:01:57;96451.78;;;2.20;81.44
1371;BME280;14306;49.942;11.570;2022-12-10T06:04:25;96455.66;;;1.89;82.95
1371;BME280;14306;49.942;11.570;2022-12-10T06:06:54;96458.44;;;2.23;82.24
1371;BME280;14306;49.942;11.570;2022-12-10T06:09:22;96469.72;;;2.15;82.69
1371;BME280;14306;49.942;11.570;2022-12-10T06:11:51;96452.59;;;2.21;82.97
1371;BME280;14306;49.942;11.570;2022-12-10T06:14:19;96451.69;;;2.40;81.98
1371;BME280;14306;49.942;11.570;2022-12-10T06:16:50;96455.28;;;2.16;82.68
1371;BME280;14306;49.942;11.570;2022-12-10T06:19:18;96441.66;;;2.17;82.72
1371;BME280;14306;49.942;11.570;2022-12-10T06:21:47;96452.53;;;2.31;81.99
1371;BME280;14306;49.942;11.570;2022-12-10T06:24:15;96454.44;;;2.30;82.23
1371;BME280;14306;49.942;11.570;2022-12-10T06:26:44;96456.06;;;2.26;81.38
1371;BME280;14306;49.942;11.570;2022-12-10T06:29:12;96453.38;;;2.26;81.67
1371;BME280;14306;49.942;11.570;2022-12-10T06:31:40;96469.38;;;2.31;81.26
1371;BME280;14306;49.942;11.570;2022-12-10T06:34:11;96457.75;;;2.07;81.91
1371;BME280;14306;49.942;11.570;2022-12-10T06:36:39;96462.03;;;2.03;82.04
1371;BME280;14306;49.942;11.570;2022-12-10T06:39:08;96461.75;;;2.05;81.81
1371;BME280;14306;49.942;11.570;2022-12-10T06:41:36;96468.94;;;2.09;82.10
1371;BME280;14306;49.942;11.570;2022-12-10T06:44:07;96472.69;;;2.08;81.68
1371;BME280;14306;49.942;11.570;2022-12-10T06:46:36;96486.00;;;2.13;81.55
1371;BME280;14306;49.942;11.570;2022-12-10T06:49:04;96475.41;;;1.93;82.94
1371;BME280;14306;49.942;11.570;2022-12-10T06:51:35;96482.56;;;2.03;82.27
1371;BME280;14306;49.942;11.570;2022-12-10T06:54:05;96478.88;;;1.94;82.43
1371;BME280;14306;49.942;11.570;2022-12-10T06:56:34;96446.88;;;1.84;82.30
1371;BME280;14306;49.942;11.570;2022-12-10T06:59:04;96462.59;;;1.95;82.06
1371;BME280;14306;49.942;11.570;2022-12-10T07:01:37;96482.53;;;2.08;81.61
1371;BME280;14306;49.942;11.570;2022-12-10T07:04:08;96481.50;;;2.04;82.00
1371;BME280;14306;49.942;11.570;2022-12-10T07:06:38;96480.00;;;1.73;83.60
1371;BME280;14306;49.942;11.570;2022-12-10T07:09:07;96481.22;;;2.05;82.05
1371;BME280;14306;49.942;11.570;2022-12-10T07:11:36;96469.53;;;1.86;82.12
1371;BME280;14306;49.942;11.570;2022-12-10T07:14:05;96482.03;;;2.01;82.00
1371;BME280;14306;49.942;11.570;2022-12-10T07:16:34;96468.44;;;1.97;81.53
1371;BME280;14306;49.942;11.570;2022-12-10T07:19:02;96479.66;;;1.94;81.66
1371;BME280;14306;49.942;11.570;2022-12-10T07:21:32;96473.50;;;2.04;82.03
1371;BME280;14306;49.942;11.570;2022-12-10T07:24:04;96481.50;;;2.04;82.64
1371;BME280;14306;49.942;11.570;2022-12-10T07:26:35;96476.16;;;2.04;81.88
1371;BME280;14306;49.942;11.570;2022-12-10T07:29:06;96484.72;;;2.06;82.23
1371;BME280;14306;49.942;11.570;2022-12-10T07:31:35;96501.25;;;2.03;83.01
1371;BME280;14306;49.942;11.570;2022-12-10T07:34:04;96464.53;;;1.70;83.39
1371;BME280;14306;49.942;11.570;2022-12-10T07:36:32;96489.84;;;1.82;83.94
1371;BME280;14306;49.942;11.570;2022-12-10T07:39:04;96488.75;;;1.83;83.71
1371;BME280;14306;49.942;11.570;2022-12-10T07:41:34;96485.53;;;1.96;83.38
1371;BME280;14306;49.942;11.570;2022-12-10T07:44:03;96482.03;;;2.01;82.65
1371;BME280;14306;49.942;11.570;2022-12-10T07:46:34;96489.81;;;1.87;84.75
1371;BME280;14306;49.942;11.570;2022-12-10T07:49:03;96496.47;;;2.05;83.50
1371;BME280;14306;49.942;11.570;2022-12-10T07:51:32;96496.09;;;2.21;82.99
1371;BME280;14306;49.942;11.570;2022-12-10T07:54:02;96514.34;;;1.94;83.83
1371;BME280;14306;49.942;11.570;2022-12-10T07:56:31;96488.97;;;2.07;83.78
1371;BME280;14306;49.942;11.570;2022-12-10T07:59:03;96498.84;;;2.11;83.59
1371;BME280;14306;49.942;11.570;2022-12-10T08:01:32;96495.63;;;2.14;83.41
1371;BME280;14306;49.942;11.570;2022-12-10T08:04:01;96497.78;;;2.07;83.27
1371;BME280;14306;49.942;11.570;2022-12-10T08:06:29;96500.63;;;2.26;82.85
1371;BME280;14306;49.942;11.570;2022-12-10T08:08:59;96503.63;;;2.09;83.65
1371;BME280;14306;49.942;11.570;2022-12-10T08:11:29;96503.09;;;2.12;84.36
1371;BME280;14306;49.942;11.570;2022-12-10T08:13:57;96497.50;;;2.14;83.29
1371;BME280;14306;49.942;11.570;2022-12-10T08:16:27;96502.22;;;2.32;82.75
1371;BME280;14306;49.942;11.570;2022-12-10T08:18:56;96492.75;;;1.91;83.17
1371;BME280;14306;49.942;11.570;2022-12-10T08:21:27;96505.56;;;1.94;84.93
1371;BME280;14306;49.942;11.570;2022-12-10T08:23:56;96507.09;;;2.15;84.80
1371;BME280;14306;49.942;11.570;2022-12-10T08:26:27;96532.75;;;2.01;83.55
1371;BME280;14306;49.942;11.570;2022-12-10T08:28:57;96515.41;;;2.03;84.64
1371;BME280;14306;49.942;11.570;2022-12-10T08:31:26;96522.00;;;2.26;84.55
1371;BME280;14306;49.942;11.570;2022-12-10T08:34:02;96516.56;;;2.46;82.90
1371;BME280;14306;49.942;11.570;2022-12-10T08:36:31;96522.28;;;2.24;83.83
1371;BME280;14306;49.942;11.570;2022-12-10T08:39:00;96522.53;;;2.81;82.83
1371;BME280;14306;49.942;11.570;2022-12-10T08:41:28;96530.47;;;2.43;83.51
1371;BME280;14306;49.942;11.570;2022-12-10T08:43:58;96534.41;;;2.60;82.98
1371;BME280;14306;49.942;11.570;2022-12-10T08:46:27;96529.22;;;2.79;82.35
1371;BME280;14306;49.942;11.570;2022-12-10T08:48:56;96531.72;;;2.65;83.57
1371;BME280;14306;49.942;11.570;2022-12-10T08:51:25;96523.66;;;2.70;83.46
1371;BME280;14306;49.942;11.570;2022-12-10T08:53:55;96526.00;;;2.77;82.30
1371;BME280;14306;49.942;11.570;2022-12-10T08:56:23;96523.72;;;2.60;83.65
1371;BME280;14306;49.942;11.570;2022-12-10T08:58:52;96522.47;;;2.91;83.50
1371;BME280;14306;49.942;11.570;2022-12-10T09:01:22;96533.91;;;3.02;82.81
1371;BME280;14306;49.942;11.570;2022-12-10T09:03:51;96530.13;;;3.03;82.39
1371;BME280;14306;49.942;11.570;2022-12-10T09:06:23;96537.13;;;3.37;82.15
1371;BME280;14306;49.942;11.570;2022-12-10T09:08:52;96542.72;;;3.69;80.68
1371;BME280;14306;49.942;11.570;2022-12-10T09:11:24;96543.72;;;3.45;81.17
1371;BME280;14306;49.942;11.570;2022-12-10T09:13:53;96537.69;;;3.63;81.60
1371;BME280;14306;49.942;11.570;2022-12-10T09:16:29;96545.63;;;3.73;80.16
1371;BME280;14306;49.942;11.570;2022-12-10T09:18:57;96529.66;;;3.63;81.00
1371;BME280;14306;49.942;11.570;2022-12-10T09:21:26;96543.81;;;3.68;80.50
1371;BME280;14306;49.942;11.570;2022-12-10T09:23:55;96533.94;;;3.64;80.94
1371;BME280;14306;49.942;11.570;2022-12-10T09:26:23;96530.75;;;3.62;80.62
1371;BME280;14306;49.942;11.570;2022-12-10T09:28:53;96535.16;;;3.48;82.44
1371;BME280;14306;49.942;11.570;2022-12-10T09:31:26;96485.31;;;3.23;82.64
1371;BME280;14306;49.942;11.570;2022-12-10T09:33:55;96497.00;;;3.32;81.18
1371;BME280;14306;49.942;11.570;2022-12-10T09:36:24;96536.81;;;3.72;80.17
1371;BME280;14306;49.942;11.570;2022-12-10T09:38:59;96536.56;;;3.69;80.99
1371;BME280;14306;49.942;11.570;2022-12-10T09:41:41;96535.34;;;3.56;81.67
1371;BME280;14306;49.942;11.570;2022-12-10T09:44:23;96551.84;;;3.68;82.50
1371;BME280;14306;49.942;11.570;2022-12-10T09:46:57;96542.22;;;3.67;81.37
1371;BME280;14306;49.942;11.570;2022-12-10T09:49:33;96526.44;;;3.66;80.86
1371;BME280;14306;49.942;11.570;2022-12-10T09:52:12;96531.03;;;3.60;80.51
1371;BME280;14306;49.942;11.570;2022-12-10T09:54:45;96528.22;;;3.42;82.09
1371;BME280;14306;49.942;11.570;2022-12-10T09:57:20;96528.56;;;3.35;82.08
1371;BME280;14306;49.942;11.570;2022-12-10T09:59:50;96518.34;;;3.42;83.26
1371;BME280;14306;49.942;11.570;2022-12-10T10:02:23;96523.56;;;3.57;81.01
1371;BME280;14306;49.942;11.570;2022-12-10T10:04:58;96518.63;;;3.41;81.67
1371;BME280;14306;49.942;11.570;2022-12-10T10:07:31;96533.63;;;3.37;81.74
1371;BME280;14306;49.942;11.570;2022-12-10T10:10:03;96522.59;;;3.48;82.46
1371;BME280;14306;49.942;11.570;2022-12-10T10:12:34;96529.19;;;3.56;81.36
1371;BME280;14306;49.942;11.570;2022-12-10T10:15:12;96473.72;;;3.04;82.47
1371;BME280;14306;49.942;11.570;2022-12-10T10:17:43;96473.81;;;3.23;81.50
1371;BME280;14306;49.942;11.570;2022-12-10T10:20:14;96468.78;;;3.21;82.67
1371;BME280;14306;49.942;11.570;2022-12-10T10:22:42;96516.16;;;3.16;83.11
1371;BME280;14306;49.942;11.570;2022-12-10T10:25:13;96442.53;;;2.90;83.54
1371;BME280;14306;49.942;11.570;2022-12-10T10:27:43;96520.25;;;3.37;82.96
1371;BME280;14306;49.942;11.570;2022-12-10T10:30:15;96519.44;;;3.36;83.24
1371;BME280;14306;49.942;11.570;2022-12-10T10:32:48;96473.44;;;3.06;83.19
1371;BME280;14306;49.942;11.570;2022-12-10T10:35:23;96514.06;;;3.41;83.15
1371;BME280;14306;49.942;11.570;2022-12-10T10:37:56;96491.34;;;3.39;82.47
1371;BME280;14306;49.942;11.570;2022-12-10T10:40:29;96485.59;;;3.22;81.85
1371;BME280;14306;49.942;11.570;2022-12-10T10:43:03;96514.25;;;3.21;83.72
1371;BME280;14306;49.942;11.570;2022-12-10T10:45:42;96519.59;;;3.50;83.45
1371;BME280;14306;49.942;11.570;2022-12-10T10:48:14;96516.69;;;3.46;83.63
1371;BME280;14306;49.942;11.570;2022-12-10T10:50:45;96525.69;;;3.55;83.75
1371;BME280;14306;49.942;11.570;2022-12-10T10:53:28;96492.53;;;3.23;84.78
1371;BME280;14306;49.942;11.570;2022-12-10T10:56:05;96524.66;;;3.56;83.21
1371;BME280;14306;49.942;11.570;2022-12-10T10:58:36;96511.41;;;3.36;84.97
1371;BME280;14306;49.942;11.570;2022-12-10T11:01:06;96498.50;;;3.48;84.70
1371;BME280;14306;49.942;11.570;2022-12-10T11:03:46;96488.38;;;3.40;83.11
1371;BME280;14306;49.942;11.570;2022-12-10T11:06:16;96524.53;;;3.66;85.06
1371;BME280;14306;49.942;11.570;2022-12-10T11:08:46;96523.28;;;3.87;84.31
1371;BME280;14306;49.942;11.570;2022-12-10T11:11:19;96500.41;;;3.71;85.26
1371;BME280;14306;49.942;11.570;2022-12-10T11:13:52;96516.50;;;3.95;85.92
1371;BME280;14306;49.942;11.570;2022-12-10T11:16:23;96479.63;;;3.87;84.47
1371;BME280;14306;49.942;11.570;2022-12-10T11:18:58;96474.84;;;4.07;84.51
1371;BME280;14306;49.942;11.570;2022-12-10T11:21:30;96494.81;;;4.39;84.63
1371;BME280;14306;49.942;11.570;2022-12-10T11:24:04;96507.97;;;4.59;83.60
1371;BME280;14306;49.942;11.570;2022-12-10T11:26:49;96482.94;;;4.02;84.96
1371;BME280;14306;49.942;11.570;2022-12-10T11:29:33;96513.13;;;4.74;83.82
1371;BME280;14306;49.942;11.570;2022-12-10T11:32:20;96506.03;;;5.01;82.53
1371;BME280;14306;49.942;11.570;2022-12-10T11:35:01;96526.03;;;5.09;82.38
1371;BME280;14306;49.942;11.570;2022-12-10T11:37:36;96474.28;;;4.10;83.59
1371;BME280;14306;49.942;11.570;2022-12-10T11:40:15;96500.03;;;4.91;83.14
1371;BME280;14306;49.942;11.570;2022-12-10T11:42:54;96510.59;;;5.19;81.59
1371;BME280;14306;49.942;11.570;2022-12-10T11:45:30;96510.28;;;5.39;80.82
1371;BME280;14306;49.942;11.570;2022-12-10T11:48:12;96518.06;;;5.22;80.32
1371;BME280;14306;49.942;11.570;2022-12-10T11:50:50;96517.34;;;4.98;80.85
1371;BME280;14306;49.942;11.570;2022-12-10T11:53:39;96511.84;;;5.08;81.89
1371;BME280;14306;49.942;11.570;2022-12-10T11:56:18;96519.88;;;5.45;82.29
1371;BME280;14306;49.942;11.570;2022-12-10T11:58:58;96538.00;;;5.35;81.56
1371;BME280;14306;49.942;11.570;2022-12-10T12:01:41;96526.09;;;4.67;83.52
1371;BME280;14306;49.942;11.570;2022-12-10T12:04:23;96521.13;;;4.97;82.09
1371;BME280;14306;49.942;11.570;2022-12-10T12:07:18;96491.06;;;4.40;83.08
1371;BME280;14306;49.942;11.570;2022-12-10T12:10:11;96472.19;;;4.50;81.50
1371;BME280;14306;49.942;11.570;2022-12-10T12:12:49;96511.16;;;4.61;81.88
1371;BME280;14306;49.942;11.570;2022-12-10T12:15:25;96514.31;;;4.68;82.35
1371;BME280;14306;49.942;11.570;2022-12-10T12:18:00;96520.22;;;4.46;82.61
1371;BME280;14306;49.942;11.570;2022-12-10T12:20:32;96515.69;;;4.42;82.33
1371;BME280;14306;49.942;11.570;2022-12-10T12:23:11;96524.75;;;4.46;81.38
1371;BME280;14306;49.942;11.570;2022-12-10T12:25:45;96520.31;;;4.12;81.79
1371;BME280;14306;49.942;11.570;2022-12-10T12:28:20;96515.94;;;4.22;82.13
1371;BME280;14306;49.942;11.570;2022-12-10T12:30:53;96501.84;;;4.11;80.71
1371;BME280;14306;49.942;11.570;2022-12-10T12:33:29;96513.44;;;4.06;81.86
1371;BME280;14306;49.942;11.570;2022-12-10T12:36:06;96504.03;;;4.33;81.20
1371;BME280;14306;49.942;11.570;2022-12-10T12:38:41;96518.47;;;4.55;80.26
1371;BME280;14306;49.942;11.570;2022-12-10T12:41:15;96530.59;;;4.29;79.01
1371;BME280;14306;49.942;11.570;2022-12-10T12:43:50;96494.06;;;4.14;80.17
1371;BME280;14306;49.942;11.570;2022-12-10T12:46:29;96516.44;;;4.47;80.20
1371;BME280;14306;49.942;11.570;2022-12-10T12:49:04;96496.41;;;4.40;78.95
1371;BME280;14306;49.942;11.570;2022-12-10T12:51:40;96499.59;;;3.99;79.55
1371;BME280;14306;49.942;11.570;2022-12-10T12:54:12;96512.59;;;3.82;80.41
1371;BME280;14306;49.942;11.570;2022-12-10T12:56:58;96511.22;;;4.13;79.81
1371;BME280;14306;49.942;11.570;2022-12-10T12:59:36;96511.28;;;3.80;78.36
1371;BME280;14306;49.942;11.570;2022-12-10T13:02:19;96490.84;;;3.65;78.02
1371;BME280;14306;49.942;11.570;2022-12-10T13:04:50;96516.69;;;3.75;78.29
1371;BME280;14306;49.942;11.570;2022-12-10T13:07:33;96509.97;;;3.49;76.61
1371;BME280;14306;49.942;11.570;2022-12-10T13:10:24;96508.50;;;3.33;78.38
1371;BME280;14306;49.942;11.570;2022-12-10T13:13:15;96533.53;;;3.18;79.26
1371;BME280;14306;49.942;11.570;2022-12-10T13:15:45;96519.22;;;2.99;78.04
1371;BME280;14306;49.942;11.570;2022-12-10T13:18:34;96528.00;;;3.38;77.33
1371;BME280;14306;49.942;11.570;2022-12-10T13:21:28;96540.47;;;3.19;77.09
1371;BME280;14306;49.942;11.570;2022-12-10T13:24:12;96539.97;;;3.46;77.84
1371;BME280;14306;49.942;11.570;2022-12-10T13:27:02;96554.03;;;3.28;79.69
1371;BME280;14306;49.942;11.570;2022-12-10T13:29:44;96554.75;;;3.38;77.99
1371;BME280;14306;49.942;11.570;2022-12-10T13:32:18;96524.75;;;2.69;77.50
1371;BME280;14306;49.942;11.570;2022-12-10T13:35:23;96555.41;;;3.20;75.94
1371;BME280;14306;49.942;11.570;2022-12-10T13:38:02;96527.00;;;2.91;75.02